createdAt,value
2017-01-31T00:00:10.827Z,0
2017-01-31T00:01:21.571Z,0
2017-01-31T00:02:32.311Z,0
2017-01-31T00:03:42.654Z,0
2017-01-31T00:04:53.010Z,0
2017-01-31T00:06:03.800Z,0
2017-01-31T00:07:14.150Z,0
2017-01-31T00:08:24.898Z,0
2017-01-31T00:09:35.653Z,0
2017-01-31T00:10:46.020Z,0
2017-01-31T00:11:56.386Z,0
2017-01-31T00:13:06.738Z,0
2017-01-31T00:14:17.534Z,0
2017-01-31T00:15:28.295Z,0
2017-01-31T00:16:38.631Z,0
2017-01-31T00:17:48.863Z,0
2017-01-31T00:18:59.602Z,0
2017-01-31T00:20:09.965Z,0
2017-01-31T00:21:20.314Z,0
2017-01-31T00:22:30.661Z,0
2017-01-31T00:23:40.598Z,0
2017-01-31T00:24:51.337Z,0
2017-01-31T00:26:00.902Z,0
2017-01-31T00:27:11.248Z,0
2017-01-31T00:28:21.594Z,0
2017-01-31T00:29:32.331Z,0
2017-01-31T00:30:43.083Z,0
2017-01-31T00:31:53.459Z,0
2017-01-31T00:33:03.809Z,0
2017-01-31T00:34:14.548Z,0
2017-01-31T00:35:24.928Z,0
2017-01-31T00:36:35.673Z,0
2017-01-31T00:37:46.408Z,0
2017-01-31T00:38:57.159Z,0
2017-01-31T00:40:07.908Z,0
2017-01-31T00:41:17.862Z,0
2017-01-31T00:42:28.600Z,0
2017-01-31T00:43:38.943Z,0
2017-01-31T00:44:49.286Z,0
2017-01-31T00:45:59.635Z,0
2017-01-31T00:47:10.373Z,0
2017-01-31T00:48:21.112Z,0
2017-01-31T00:49:31.461Z,0
2017-01-31T00:50:41.441Z,0
2017-01-31T00:51:51.794Z,0
2017-01-31T00:53:01.735Z,0
2017-01-31T00:54:12.496Z,0
2017-01-31T00:55:23.238Z,0
2017-01-31T00:56:33.595Z,0
2017-01-31T00:57:43.947Z,0
2017-01-31T00:58:54.713Z,0
2017-01-31T01:00:04.696Z,0
2017-01-31T01:01:14.627Z,0
2017-01-31T01:02:24.997Z,0
2017-01-31T01:03:35.734Z,0
2017-01-31T01:04:46.518Z,0
2017-01-31T01:05:56.867Z,0
2017-01-31T01:07:07.610Z,0
2017-01-31T01:08:18.371Z,0
2017-01-31T01:09:28.323Z,0
2017-01-31T01:10:39.062Z,0
2017-01-31T01:11:49.798Z,0
2017-01-31T01:12:59.751Z,0
2017-01-31T01:14:09.710Z,0
2017-01-31T01:15:20.042Z,0
2017-01-31T01:16:30.821Z,0
2017-01-31T01:17:41.581Z,0
2017-01-31T01:18:51.533Z,0
2017-01-31T01:20:02.287Z,0
2017-01-31T01:21:12.656Z,0
2017-01-31T01:22:23.390Z,0
2017-01-31T01:23:33.738Z,0
2017-01-31T01:24:44.104Z,0
2017-01-31T01:25:54.838Z,0
2017-01-31T01:27:05.183Z,0
2017-01-31T01:28:15.374Z,0
2017-01-31T01:29:26.123Z,0
2017-01-31T01:30:36.473Z,0
2017-01-31T01:31:46.046Z,0
2017-01-31T01:32:55.994Z,0
2017-01-31T01:34:06.739Z,0
2017-01-31T01:35:17.107Z,0
2017-01-31T01:36:27.866Z,0
2017-01-31T01:37:38.217Z,0
2017-01-31T01:38:48.965Z,0
2017-01-31T01:39:59.322Z,0
2017-01-31T01:41:10.060Z,0
2017-01-31T01:42:20.411Z,0
2017-01-31T01:43:30.755Z,0
2017-01-31T01:44:41.490Z,0
2017-01-31T01:45:51.836Z,0
2017-01-31T01:47:02.583Z,0
2017-01-31T01:48:12.950Z,0
2017-01-31T01:49:23.702Z,0
2017-01-31T01:50:33.659Z,0
2017-01-31T01:51:43.999Z,0
2017-01-31T01:52:53.953Z,0
2017-01-31T01:54:04.707Z,0
2017-01-31T01:55:15.461Z,0
2017-01-31T01:56:26.219Z,0
2017-01-31T01:57:36.964Z,0
2017-01-31T01:58:46.924Z,0
2017-01-31T01:59:57.297Z,0
2017-01-31T02:01:08.045Z,0
2017-01-31T02:02:18.777Z,0
2017-01-31T02:03:29.120Z,0
2017-01-31T02:04:39.454Z,0
2017-01-31T02:05:49.803Z,0
2017-01-31T02:07:00.148Z,0
2017-01-31T02:08:10.926Z,0
2017-01-31T02:09:21.271Z,0
2017-01-31T02:10:31.641Z,0
2017-01-31T02:11:41.990Z,0
2017-01-31T02:12:52.750Z,0
2017-01-31T02:14:03.508Z,0
2017-01-31T02:15:13.486Z,0
2017-01-31T02:16:24.251Z,0
2017-01-31T02:17:34.596Z,0
2017-01-31T02:18:45.356Z,0
2017-01-31T02:19:55.712Z,0
2017-01-31T02:21:06.059Z,0
2017-01-31T02:22:16.805Z,0
2017-01-31T02:23:26.829Z,0
2017-01-31T02:24:37.569Z,0
2017-01-31T02:25:47.520Z,0
2017-01-31T02:26:57.871Z,0
2017-01-31T02:28:08.218Z,0
2017-01-31T02:29:18.962Z,0
2017-01-31T02:30:28.923Z,0
2017-01-31T02:31:39.669Z,0
2017-01-31T02:32:50.435Z,0
2017-01-31T02:34:01.180Z,0
2017-01-31T02:35:11.581Z,0
2017-01-31T02:36:21.934Z,0
2017-01-31T02:37:31.929Z,0
2017-01-31T02:38:42.294Z,0
2017-01-31T02:39:52.648Z,0
2017-01-31T02:41:03.003Z,0
2017-01-31T02:42:12.950Z,0
2017-01-31T02:43:22.912Z,0
2017-01-31T02:44:33.267Z,0
2017-01-31T02:45:43.606Z,0
2017-01-31T02:46:53.946Z,0
2017-01-31T02:48:04.703Z,0
2017-01-31T02:49:15.059Z,0
2017-01-31T02:50:25.404Z,0
2017-01-31T02:51:36.147Z,0
2017-01-31T02:52:46.516Z,0
2017-01-31T02:53:56.863Z,0
2017-01-31T02:55:07.599Z,0
2017-01-31T02:56:18.360Z,0
2017-01-31T02:57:29.175Z,0
2017-01-31T02:58:39.573Z,0
2017-01-31T02:59:50.301Z,0
2017-01-31T03:01:01.044Z,0
2017-01-31T03:32:46.392Z,0
2017-01-31T03:33:57.138Z,0
2017-01-31T03:35:07.082Z,0
2017-01-31T03:36:17.839Z,0
2017-01-31T03:37:28.171Z,0
2017-01-31T03:38:38.124Z,0
2017-01-31T03:39:48.868Z,0
2017-01-31T03:40:59.631Z,0
2017-01-31T03:42:10.365Z,0
2017-01-31T03:43:21.097Z,0
2017-01-31T03:44:31.840Z,0
2017-01-31T03:45:42.197Z,0
2017-01-31T03:46:52.934Z,0
2017-01-31T03:48:03.689Z,0
2017-01-31T03:49:14.032Z,0
2017-01-31T03:50:24.754Z,0
2017-01-31T03:51:35.500Z,0
2017-01-31T03:52:46.236Z,0
2017-01-31T03:53:56.980Z,0
2017-01-31T03:55:07.339Z,0
2017-01-31T03:56:17.687Z,0
2017-01-31T03:57:27.639Z,0
2017-01-31T03:58:37.990Z,0
2017-01-31T03:59:48.327Z,0
2017-01-31T04:00:58.669Z,0
2017-01-31T04:02:09.019Z,0
2017-01-31T04:03:18.978Z,0
2017-01-31T04:04:28.920Z,0
2017-01-31T04:05:39.672Z,0
2017-01-31T04:06:49.237Z,0
2017-01-31T04:07:59.206Z,0
2017-01-31T04:09:09.546Z,0
2017-01-31T04:10:19.889Z,0
2017-01-31T04:11:29.844Z,0
2017-01-31T04:12:40.196Z,0
2017-01-31T04:13:50.544Z,0
2017-01-31T04:15:01.296Z,0
2017-01-31T04:16:11.642Z,0
2017-01-31T04:17:22.385Z,0
2017-01-31T04:18:33.163Z,0
2017-01-31T04:19:43.907Z,0
2017-01-31T04:20:54.250Z,0
2017-01-31T04:22:04.987Z,0
2017-01-31T04:23:14.932Z,0
2017-01-31T04:24:25.285Z,0
2017-01-31T04:25:35.239Z,0
2017-01-31T04:26:45.588Z,0
2017-01-31T04:27:56.339Z,0
2017-01-31T04:29:06.694Z,0
2017-01-31T04:30:17.458Z,0
2017-01-31T04:31:27.019Z,0
2017-01-31T04:32:36.571Z,0
2017-01-31T04:33:47.325Z,0
2017-01-31T04:34:58.064Z,0
2017-01-31T04:36:08.046Z,0
2017-01-31T04:37:18.807Z,0
2017-01-31T04:38:29.152Z,0
2017-01-31T04:39:39.893Z,0
2017-01-31T04:40:50.649Z,0
2017-01-31T04:42:01.008Z,0
2017-01-31T04:43:11.365Z,0
2017-01-31T04:44:21.725Z,0
2017-01-31T04:45:32.079Z,0
2017-01-31T04:46:42.832Z,0
2017-01-31T04:47:53.175Z,0
2017-01-31T04:49:03.516Z,0
2017-01-31T04:50:14.280Z,0
2017-01-31T04:51:25.054Z,0
2017-01-31T04:52:35.807Z,0
2017-01-31T04:53:45.366Z,0
2017-01-31T04:54:55.718Z,0
2017-01-31T04:56:06.467Z,0
2017-01-31T04:57:16.816Z,0
2017-01-31T04:58:27.559Z,0
2017-01-31T04:59:37.526Z,0
2017-01-31T05:00:48.268Z,0
2017-01-31T05:01:58.216Z,0
2017-01-31T05:03:08.575Z,0
2017-01-31T05:04:18.917Z,0
2017-01-31T05:05:28.871Z,0
2017-01-31T05:06:39.235Z,0
2017-01-31T05:07:49.573Z,0
2017-01-31T05:09:00.324Z,0
2017-01-31T05:10:11.083Z,0
2017-01-31T05:11:21.445Z,0
2017-01-31T05:12:31.795Z,0
2017-01-31T05:13:41.360Z,0
2017-01-31T05:14:52.108Z,0
2017-01-31T05:16:02.859Z,0
2017-01-31T05:17:12.811Z,0
2017-01-31T05:18:22.350Z,0
2017-01-31T05:19:32.695Z,0
2017-01-31T05:20:43.041Z,0
2017-01-31T05:21:53.379Z,0
2017-01-31T05:23:04.122Z,0
2017-01-31T05:24:14.086Z,0
2017-01-31T05:25:24.417Z,0
2017-01-31T05:26:35.167Z,0
2017-01-31T05:27:45.521Z,0
2017-01-31T05:28:55.469Z,0
2017-01-31T05:30:05.832Z,0
2017-01-31T05:31:16.179Z,0
2017-01-31T05:32:26.523Z,0
2017-01-31T05:33:36.512Z,0
2017-01-31T05:34:46.852Z,0
2017-01-31T05:35:57.590Z,0
2017-01-31T05:37:07.952Z,0
2017-01-31T05:38:18.297Z,0
2017-01-31T05:39:28.644Z,0
2017-01-31T05:40:39.381Z,0
2017-01-31T05:41:50.138Z,0
2017-01-31T05:43:00.480Z,0
2017-01-31T05:44:11.231Z,0
2017-01-31T05:45:21.578Z,0
2017-01-31T05:46:31.935Z,0
2017-01-31T05:47:42.296Z,0
2017-01-31T05:48:52.248Z,0
2017-01-31T05:50:02.998Z,0
2017-01-31T05:51:12.592Z,0
2017-01-31T05:52:23.336Z,0
2017-01-31T05:53:33.678Z,0
2017-01-31T05:54:44.432Z,0
2017-01-31T05:55:55.173Z,0
2017-01-31T05:57:05.526Z,0
2017-01-31T05:58:15.876Z,0
2017-01-31T05:59:26.639Z,0
2017-01-31T06:00:37.030Z,0
2017-01-31T06:01:47.785Z,0
2017-01-31T06:02:58.533Z,0
2017-01-31T06:04:09.288Z,0
2017-01-31T06:05:20.066Z,0
2017-01-31T06:06:30.427Z,0
2017-01-31T06:07:40.764Z,0
2017-01-31T06:08:51.112Z,0
2017-01-31T06:10:01.473Z,0
2017-01-31T06:11:11.816Z,0
2017-01-31T06:12:22.581Z,0
2017-01-31T06:13:33.337Z,0
2017-01-31T06:14:44.086Z,0
2017-01-31T06:15:54.822Z,0
2017-01-31T06:17:05.176Z,0
2017-01-31T06:18:15.124Z,0
2017-01-31T06:19:25.466Z,0
2017-01-31T06:20:36.217Z,0
2017-01-31T06:21:46.555Z,0
2017-01-31T06:22:56.929Z,0
2017-01-31T06:24:07.254Z,0
2017-01-31T06:25:18.004Z,0
2017-01-31T06:26:28.764Z,0
2017-01-31T06:27:39.528Z,0
2017-01-31T06:28:49.883Z,0
2017-01-31T06:29:59.840Z,0
2017-01-31T06:31:09.795Z,0
2017-01-31T06:32:19.751Z,0
2017-01-31T06:33:30.097Z,0
2017-01-31T06:34:40.856Z,5
2017-01-31T06:35:51.642Z,5
2017-01-31T06:37:01.973Z,5
2017-01-31T06:38:12.320Z,5
2017-01-31T06:39:22.676Z,5
2017-01-31T06:40:33.036Z,5
2017-01-31T06:41:43.789Z,5
2017-01-31T06:42:54.135Z,5
2017-01-31T06:44:04.478Z,5
2017-01-31T06:45:14.473Z,5
2017-01-31T06:46:24.436Z,5
2017-01-31T06:47:35.179Z,5
2017-01-31T06:48:45.515Z,5
2017-01-31T06:49:55.862Z,5
2017-01-31T06:51:06.609Z,5
2017-01-31T06:52:16.172Z,5
2017-01-31T06:53:26.927Z,10
2017-01-31T06:54:36.501Z,10
2017-01-31T06:55:46.450Z,10
2017-01-31T06:56:57.187Z,10
2017-01-31T06:58:07.533Z,10
2017-01-31T06:59:17.481Z,15
2017-01-31T07:00:27.821Z,15
2017-01-31T07:01:38.163Z,10
2017-01-31T07:02:48.911Z,10
2017-01-31T07:03:58.872Z,10
2017-01-31T07:05:08.821Z,15
2017-01-31T07:06:18.777Z,10
2017-01-31T07:07:29.512Z,15
2017-01-31T07:08:39.856Z,15
2017-01-31T07:09:50.595Z,15
2017-01-31T07:11:01.343Z,15
2017-01-31T07:12:11.711Z,15
2017-01-31T07:13:22.055Z,20
2017-01-31T07:14:32.804Z,20
2017-01-31T07:15:43.156Z,20
2017-01-31T07:16:53.118Z,20
2017-01-31T07:18:03.462Z,20
2017-01-31T07:19:14.215Z,20
2017-01-31T07:20:24.968Z,20
2017-01-31T07:21:35.731Z,20
2017-01-31T07:22:46.085Z,20
2017-01-31T07:23:56.070Z,20
2017-01-31T07:25:06.418Z,20
2017-01-31T07:26:16.776Z,20
2017-01-31T07:27:27.123Z,20
2017-01-31T07:28:37.508Z,20
2017-01-31T07:29:47.860Z,20
2017-01-31T07:30:58.611Z,25
2017-01-31T07:32:09.373Z,20
2017-01-31T07:33:19.712Z,20
2017-01-31T07:34:30.467Z,20
2017-01-31T07:35:40.812Z,25
2017-01-31T07:36:51.571Z,25
2017-01-31T07:38:01.929Z,25
2017-01-31T07:39:12.291Z,25
2017-01-31T07:40:23.047Z,25
2017-01-31T07:41:33.412Z,30
2017-01-31T07:42:43.999Z,30
2017-01-31T07:43:54.743Z,30
2017-01-31T07:45:04.706Z,30
2017-01-31T07:46:15.074Z,30
2017-01-31T07:47:25.425Z,35
2017-01-31T07:48:35.366Z,30
2017-01-31T07:49:45.715Z,25
2017-01-31T07:50:55.667Z,30
2017-01-31T07:52:06.405Z,30
2017-01-31T07:53:16.754Z,30
2017-01-31T07:54:27.518Z,25
2017-01-31T07:55:38.249Z,25
2017-01-31T07:56:49.025Z,25
2017-01-31T07:57:59.784Z,30
2017-01-31T07:59:10.542Z,30
2017-01-31T08:00:21.276Z,30
2017-01-31T08:01:31.622Z,30
2017-01-31T08:02:42.005Z,25
2017-01-31T08:03:52.765Z,35
2017-01-31T08:05:03.108Z,30
2017-01-31T08:06:13.454Z,30
2017-01-31T08:07:23.813Z,30
2017-01-31T08:08:34.576Z,30
2017-01-31T08:09:44.918Z,25
2017-01-31T08:10:55.262Z,25
2017-01-31T08:12:05.604Z,25
2017-01-31T08:13:15.561Z,25
2017-01-31T08:14:25.905Z,30
2017-01-31T08:15:36.263Z,40
2017-01-31T08:16:46.219Z,35
2017-01-31T08:17:56.980Z,35
2017-01-31T08:19:06.940Z,30
2017-01-31T08:20:16.899Z,35
2017-01-31T08:21:27.649Z,35
2017-01-31T08:22:38.408Z,35
2017-01-31T08:23:49.142Z,35
2017-01-31T08:24:59.876Z,35
2017-01-31T08:26:09.835Z,40
2017-01-31T08:27:20.182Z,40
2017-01-31T08:28:30.544Z,45
2017-01-31T08:29:41.279Z,45
2017-01-31T08:30:51.635Z,45
2017-01-31T08:32:01.991Z,45
2017-01-31T08:33:12.739Z,50
2017-01-31T08:34:23.510Z,50
2017-01-31T08:35:33.880Z,50
2017-01-31T08:36:43.855Z,50
2017-01-31T08:37:54.846Z,50
2017-01-31T08:39:05.606Z,55
2017-01-31T08:40:16.355Z,60
2017-01-31T08:41:26.711Z,65
2017-01-31T08:42:37.323Z,70
2017-01-31T08:43:47.677Z,70
2017-01-31T08:44:58.024Z,65
2017-01-31T08:46:07.587Z,70
2017-01-31T08:47:18.335Z,75
2017-01-31T08:48:28.682Z,70
2017-01-31T08:49:39.033Z,70
2017-01-31T08:50:49.784Z,65
2017-01-31T08:52:00.583Z,70
2017-01-31T08:53:10.928Z,65
2017-01-31T08:54:21.288Z,60
2017-01-31T08:55:32.032Z,55
2017-01-31T08:56:42.385Z,50
2017-01-31T08:57:53.155Z,55
2017-01-31T08:59:03.494Z,50
2017-01-31T09:00:14.256Z,50
2017-01-31T09:01:24.215Z,50
2017-01-31T09:02:34.567Z,50
2017-01-31T09:03:44.917Z,45
2017-01-31T09:04:55.282Z,50
2017-01-31T09:06:05.617Z,50
2017-01-31T09:07:15.571Z,45
2017-01-31T09:08:25.999Z,45
2017-01-31T09:09:36.764Z,45
2017-01-31T09:10:47.514Z,45
2017-01-31T09:11:57.875Z,45
2017-01-31T09:13:08.608Z,45
2017-01-31T09:14:19.370Z,50
2017-01-31T09:15:30.110Z,55
2017-01-31T09:16:40.862Z,55
2017-01-31T09:17:51.205Z,65
2017-01-31T09:19:01.947Z,60
2017-01-31T09:20:12.688Z,55
2017-01-31T09:21:22.644Z,50
2017-01-31T09:22:33.380Z,50
2017-01-31T09:23:44.137Z,50
2017-01-31T09:24:54.482Z,50
2017-01-31T09:26:05.250Z,55
2017-01-31T09:27:15.588Z,55
2017-01-31T09:28:26.342Z,55
2017-01-31T09:29:36.691Z,55
2017-01-31T09:30:47.044Z,60
2017-01-31T09:31:57.794Z,55
2017-01-31T09:33:07.367Z,50
2017-01-31T09:34:18.104Z,50
2017-01-31T09:35:28.483Z,50
2017-01-31T09:36:38.841Z,50
2017-01-31T09:37:49.590Z,50
2017-01-31T09:38:59.546Z,50
2017-01-31T09:40:09.916Z,50
2017-01-31T09:41:20.268Z,50
2017-01-31T09:42:30.626Z,50
2017-01-31T09:43:40.996Z,50
2017-01-31T09:44:51.759Z,55
2017-01-31T09:46:02.101Z,55
2017-01-31T09:47:13.086Z,60
2017-01-31T09:48:23.474Z,60
2017-01-31T09:49:34.224Z,60
2017-01-31T09:50:44.585Z,60
2017-01-31T09:51:54.944Z,55
2017-01-31T09:53:05.689Z,55
2017-01-31T09:54:16.071Z,60
2017-01-31T09:55:26.428Z,70
2017-01-31T09:56:36.776Z,70
2017-01-31T09:57:47.521Z,65
2017-01-31T09:58:58.263Z,70
2017-01-31T10:00:09.006Z,70
2017-01-31T10:01:19.751Z,70
2017-01-31T10:02:30.537Z,65
2017-01-31T10:03:40.105Z,65
2017-01-31T10:04:50.853Z,60
2017-01-31T10:06:01.219Z,55
2017-01-31T10:07:11.960Z,50
2017-01-31T10:08:22.302Z,55
2017-01-31T10:09:33.061Z,55
2017-01-31T10:10:43.816Z,60
2017-01-31T10:11:54.567Z,55
2017-01-31T10:13:05.313Z,50
2017-01-31T10:14:15.252Z,50
2017-01-31T10:15:25.611Z,55
2017-01-31T10:16:35.984Z,60
2017-01-31T10:17:46.368Z,60
2017-01-31T10:18:56.711Z,70
2017-01-31T10:20:07.064Z,65
2017-01-31T10:21:17.826Z,70
2017-01-31T10:22:27.785Z,65
2017-01-31T10:23:38.140Z,65
2017-01-31T10:24:48.086Z,60
2017-01-31T10:25:58.441Z,55
2017-01-31T10:27:09.184Z,55
2017-01-31T10:28:19.142Z,55
2017-01-31T10:29:29.511Z,50
2017-01-31T10:30:39.462Z,50
2017-01-31T10:31:50.219Z,55
2017-01-31T10:33:00.967Z,55
2017-01-31T10:34:11.312Z,55
2017-01-31T10:35:21.659Z,60
2017-01-31T10:36:32.406Z,65
2017-01-31T10:37:42.748Z,55
2017-01-31T10:38:53.094Z,65
2017-01-31T10:40:03.445Z,70
2017-01-31T10:41:14.189Z,70
2017-01-31T10:42:24.540Z,65
2017-01-31T10:43:34.891Z,65
2017-01-31T10:44:45.647Z,65
2017-01-31T10:45:56.021Z,70
2017-01-31T10:47:05.996Z,65
2017-01-31T10:48:16.775Z,60
2017-01-31T10:49:27.135Z,70
2017-01-31T10:50:36.709Z,80
2017-01-31T10:51:47.066Z,80
2017-01-31T10:52:57.816Z,90
2017-01-31T10:54:08.183Z,90
2017-01-31T10:55:18.529Z,100
2017-01-31T10:56:28.875Z,120
2017-01-31T10:57:39.237Z,120
2017-01-31T10:58:49.584Z,105
2017-01-31T10:59:59.940Z,110
2017-01-31T11:01:09.892Z,115
2017-01-31T11:02:20.659Z,110
2017-01-31T11:03:31.048Z,95
2017-01-31T11:04:40.602Z,110
2017-01-31T11:05:50.949Z,100
2017-01-31T11:07:00.513Z,110
2017-01-31T11:08:11.261Z,105
2017-01-31T11:09:22.019Z,105
2017-01-31T11:10:31.979Z,105
2017-01-31T11:11:42.338Z,100
2017-01-31T11:12:52.695Z,95
2017-01-31T11:14:02.656Z,95
2017-01-31T11:15:12.223Z,105
2017-01-31T11:16:22.204Z,100
2017-01-31T11:17:32.965Z,95
2017-01-31T11:18:43.307Z,90
2017-01-31T11:19:54.036Z,100
2017-01-31T11:21:04.784Z,90
2017-01-31T11:22:15.133Z,95
2017-01-31T11:23:25.476Z,80
2017-01-31T11:24:36.256Z,85
2017-01-31T11:25:47.011Z,90
2017-01-31T11:26:57.762Z,90
2017-01-31T11:28:08.107Z,75
2017-01-31T11:29:18.461Z,75
2017-01-31T11:30:28.820Z,65
2017-01-31T11:31:39.155Z,65
2017-01-31T11:32:49.913Z,65
2017-01-31T11:34:00.660Z,65
2017-01-31T11:35:11.402Z,65
2017-01-31T11:36:22.164Z,65
2017-01-31T11:37:31.731Z,60
2017-01-31T11:38:42.477Z,55
2017-01-31T11:39:52.830Z,55
2017-01-31T11:41:02.795Z,65
2017-01-31T11:42:13.542Z,70
2017-01-31T11:43:23.898Z,65
2017-01-31T11:44:34.243Z,60
2017-01-31T11:45:44.601Z,55
2017-01-31T11:46:54.561Z,50
2017-01-31T11:48:05.324Z,50
2017-01-31T11:49:15.679Z,55
2017-01-31T11:50:26.419Z,55
2017-01-31T11:51:37.170Z,55
2017-01-31T11:52:47.524Z,50
2017-01-31T11:53:58.274Z,50
2017-01-31T11:55:08.649Z,45
2017-01-31T11:56:18.612Z,40
2017-01-31T11:57:28.959Z,50
2017-01-31T11:58:38.949Z,40
2017-01-31T11:59:49.300Z,40
2017-01-31T12:00:59.663Z,40
2017-01-31T12:02:10.441Z,35
2017-01-31T12:03:21.183Z,35
2017-01-31T12:04:31.565Z,35
2017-01-31T12:05:42.314Z,35
2017-01-31T12:06:52.276Z,35
2017-01-31T12:08:02.656Z,35
2017-01-31T12:09:13.439Z,25
2017-01-31T12:10:23.819Z,25
2017-01-31T12:11:34.573Z,25
2017-01-31T12:12:45.317Z,25
2017-01-31T12:13:55.262Z,25
2017-01-31T12:15:05.621Z,25
2017-01-31T12:16:15.989Z,30
2017-01-31T12:17:26.369Z,25
2017-01-31T12:18:36.724Z,25
2017-01-31T12:19:46.288Z,25
2017-01-31T12:20:57.057Z,30
2017-01-31T12:22:06.262Z,30
2017-01-31T12:23:16.632Z,30
2017-01-31T12:24:26.578Z,30
2017-01-31T12:25:36.920Z,30
2017-01-31T12:26:46.917Z,35
2017-01-31T12:27:56.883Z,30
2017-01-31T12:29:07.626Z,30
2017-01-31T12:30:18.367Z,30
2017-01-31T12:31:28.720Z,25
2017-01-31T12:32:38.680Z,25
2017-01-31T12:33:49.432Z,30
2017-01-31T12:34:59.437Z,30
2017-01-31T12:36:09.795Z,30
2017-01-31T12:37:20.151Z,30
2017-01-31T12:38:30.978Z,35
2017-01-31T12:39:41.332Z,35
2017-01-31T12:40:51.711Z,35
2017-01-31T12:42:02.081Z,35
2017-01-31T12:43:12.438Z,30
2017-01-31T12:44:23.177Z,35
2017-01-31T12:45:33.537Z,35
2017-01-31T12:46:44.297Z,30
2017-01-31T12:47:55.048Z,35
2017-01-31T12:49:05.406Z,35
2017-01-31T12:50:15.381Z,30
2017-01-31T12:51:26.142Z,30
2017-01-31T12:52:36.890Z,30
2017-01-31T12:53:47.231Z,30
2017-01-31T12:54:57.583Z,25
2017-01-31T12:56:08.326Z,25
2017-01-31T12:57:19.070Z,25
2017-01-31T12:58:29.818Z,20
2017-01-31T12:59:40.559Z,20
2017-01-31T13:00:50.528Z,20
2017-01-31T13:02:00.504Z,15
2017-01-31T13:03:11.249Z,15
2017-01-31T13:04:21.612Z,15
2017-01-31T13:05:31.607Z,15
2017-01-31T13:06:41.961Z,15
2017-01-31T13:07:52.332Z,15
2017-01-31T13:09:02.699Z,15
2017-01-31T13:10:13.485Z,15
2017-01-31T13:11:23.884Z,15
2017-01-31T13:12:34.679Z,15
2017-01-31T13:13:45.069Z,15
2017-01-31T13:14:55.875Z,15
2017-01-31T13:16:06.678Z,15
2017-01-31T13:17:16.308Z,15
2017-01-31T13:18:27.128Z,10
2017-01-31T13:19:37.524Z,15
2017-01-31T13:20:48.342Z,10
2017-01-31T13:21:59.107Z,10
2017-01-31T13:23:09.468Z,10
2017-01-31T13:24:19.428Z,10
2017-01-31T13:25:29.796Z,10
2017-01-31T13:26:40.164Z,10
2017-01-31T13:27:50.516Z,10
2017-01-31T13:29:01.265Z,10
2017-01-31T13:30:12.021Z,10
2017-01-31T13:31:21.981Z,10
2017-01-31T13:32:32.734Z,10
2017-01-31T13:33:41.899Z,10
2017-01-31T13:34:52.256Z,10
2017-01-31T13:36:03.010Z,10
2017-01-31T13:37:13.757Z,10
2017-01-31T13:38:24.505Z,10
2017-01-31T13:39:35.248Z,10
2017-01-31T13:40:46.928Z,10
2017-01-31T13:41:57.294Z,10
2017-01-31T13:43:08.126Z,10
2017-01-31T13:44:18.876Z,10
2017-01-31T13:45:28.432Z,10
2017-01-31T13:46:38.400Z,10
2017-01-31T13:47:48.773Z,10
2017-01-31T13:48:59.130Z,10
2017-01-31T13:50:09.896Z,15
2017-01-31T13:51:20.650Z,15
2017-01-31T13:52:31.014Z,15
2017-01-31T13:53:41.758Z,15
2017-01-31T13:54:52.503Z,10
2017-01-31T13:56:02.462Z,10
2017-01-31T13:57:12.811Z,10
2017-01-31T13:58:23.162Z,10
2017-01-31T13:59:33.583Z,10
2017-01-31T14:00:43.958Z,10
2017-01-31T14:01:54.703Z,10
2017-01-31T14:03:05.455Z,10
2017-01-31T14:04:15.413Z,10
2017-01-31T14:05:25.370Z,10
2017-01-31T14:06:36.143Z,5
2017-01-31T14:07:46.098Z,5
2017-01-31T14:08:56.052Z,5
2017-01-31T14:10:06.414Z,5
2017-01-31T14:11:16.781Z,5
2017-01-31T14:12:26.740Z,5
2017-01-31T14:13:37.532Z,5
2017-01-31T14:14:47.892Z,5
2017-01-31T14:15:58.263Z,5
2017-01-31T14:17:09.013Z,5
2017-01-31T14:18:19.788Z,5
2017-01-31T14:19:30.142Z,5
2017-01-31T14:20:40.896Z,5
2017-01-31T14:21:51.253Z,5
2017-01-31T14:23:01.199Z,5
2017-01-31T14:24:11.947Z,5
2017-01-31T14:25:22.303Z,5
2017-01-31T14:26:33.112Z,5
2017-01-31T14:27:43.853Z,5
2017-01-31T14:28:54.225Z,5
2017-01-31T14:30:04.962Z,5
2017-01-31T14:31:15.327Z,5
2017-01-31T14:32:26.081Z,5
2017-01-31T14:33:36.030Z,5
2017-01-31T14:34:45.983Z,5
2017-01-31T14:35:55.939Z,10
2017-01-31T14:37:06.689Z,10
2017-01-31T14:38:16.641Z,10
2017-01-31T14:39:27.394Z,10
2017-01-31T14:40:38.157Z,15
2017-01-31T14:41:47.726Z,15
2017-01-31T14:42:58.490Z,15
2017-01-31T14:44:09.254Z,20
2017-01-31T14:45:20.002Z,20
2017-01-31T14:46:30.760Z,20
2017-01-31T14:47:41.542Z,20
2017-01-31T14:48:52.290Z,20
2017-01-31T14:50:02.273Z,25
2017-01-31T14:51:12.233Z,25
2017-01-31T14:52:22.222Z,25
2017-01-31T14:53:32.965Z,20
2017-01-31T14:54:43.710Z,20
2017-01-31T14:55:54.460Z,20
2017-01-31T14:57:04.817Z,20
2017-01-31T14:58:14.806Z,25
2017-01-31T14:59:25.174Z,25
2017-01-31T15:00:35.930Z,30
2017-01-31T15:01:46.292Z,35
2017-01-31T15:02:57.051Z,35
2017-01-31T15:04:07.820Z,35
2017-01-31T15:05:17.777Z,35
2017-01-31T15:06:28.140Z,35
2017-01-31T15:07:38.488Z,30
2017-01-31T15:08:49.237Z,30
2017-01-31T15:09:59.985Z,25
2017-01-31T15:11:10.750Z,25
2017-01-31T15:12:21.105Z,25
2017-01-31T15:13:31.461Z,25
2017-01-31T15:14:42.215Z,25
2017-01-31T15:15:52.168Z,25
2017-01-31T15:17:02.129Z,25
2017-01-31T15:18:12.089Z,25
2017-01-31T15:19:21.680Z,25
2017-01-31T15:20:32.479Z,20
2017-01-31T15:21:42.844Z,20
2017-01-31T15:22:53.231Z,15
2017-01-31T15:24:03.966Z,15
2017-01-31T15:25:14.713Z,15
2017-01-31T15:26:25.465Z,20
2017-01-31T15:27:35.434Z,20
2017-01-31T15:28:46.219Z,20
2017-01-31T15:29:55.772Z,20
2017-01-31T15:31:06.121Z,25
2017-01-31T15:32:16.876Z,25
2017-01-31T15:33:27.677Z,25
2017-01-31T15:34:38.044Z,20
2017-01-31T15:35:48.000Z,20
2017-01-31T15:36:58.344Z,15
2017-01-31T15:38:09.084Z,15
2017-01-31T15:39:19.854Z,10
2017-01-31T15:40:30.619Z,10
2017-01-31T15:41:40.979Z,5
2017-01-31T15:42:51.333Z,5
2017-01-31T15:44:01.730Z,5
2017-01-31T15:45:12.491Z,5
2017-01-31T15:46:22.837Z,5
2017-01-31T15:47:33.600Z,0
2017-01-31T15:48:44.362Z,0
2017-01-31T15:49:54.739Z,0
2017-01-31T15:51:05.095Z,0
2017-01-31T15:52:15.469Z,0
2017-01-31T15:53:26.233Z,0
2017-01-31T15:54:36.199Z,0
2017-01-31T15:55:46.965Z,0
2017-01-31T15:56:56.522Z,0
2017-01-31T15:58:06.484Z,0
2017-01-31T15:59:17.253Z,0
2017-01-31T16:00:26.820Z,0
2017-01-31T16:01:37.169Z,0
2017-01-31T16:02:47.918Z,0
2017-01-31T16:03:58.687Z,0
2017-01-31T16:05:09.035Z,0
2017-01-31T16:06:19.383Z,0
2017-01-31T16:07:30.156Z,0
2017-01-31T16:08:40.120Z,0
2017-01-31T16:09:50.476Z,0
2017-01-31T16:11:00.864Z,0
2017-01-31T16:12:11.214Z,0
2017-01-31T16:13:21.969Z,0
2017-01-31T16:14:32.336Z,0
2017-01-31T16:15:42.703Z,0
2017-01-31T16:16:53.056Z,0
2017-01-31T16:18:03.820Z,0
2017-01-31T16:19:14.160Z,0
2017-01-31T16:20:24.531Z,0
2017-01-31T16:21:35.283Z,0
2017-01-31T16:22:45.642Z,0
2017-01-31T16:23:56.006Z,0
2017-01-31T16:25:06.373Z,0
2017-01-31T16:26:16.737Z,0
2017-01-31T16:27:26.723Z,0
2017-01-31T16:28:37.479Z,0
2017-01-31T16:29:47.439Z,0
2017-01-31T16:30:57.825Z,0
2017-01-31T16:32:07.781Z,0
2017-01-31T16:33:17.346Z,0
2017-01-31T16:34:27.717Z,0
2017-01-31T16:35:38.455Z,0
2017-01-31T16:36:48.274Z,0
2017-01-31T16:37:59.018Z,0
2017-01-31T16:39:09.801Z,0
2017-01-31T16:40:20.153Z,0
2017-01-31T16:41:30.898Z,0
2017-01-31T16:42:41.265Z,0
2017-01-31T16:43:51.235Z,0
2017-01-31T16:45:02.019Z,0
2017-01-31T16:46:12.770Z,0
2017-01-31T16:47:23.543Z,0
2017-01-31T16:48:34.299Z,0
2017-01-31T16:49:45.040Z,0
2017-01-31T16:50:55.801Z,0
2017-01-31T16:52:06.164Z,0
2017-01-31T16:53:16.534Z,0
2017-01-31T16:54:26.907Z,0
2017-01-31T16:55:37.676Z,0
2017-01-31T16:56:48.024Z,0
2017-01-31T16:57:58.371Z,0
2017-01-31T16:59:09.139Z,0
2017-01-31T17:00:19.520Z,0
2017-01-31T17:01:30.281Z,0
2017-01-31T17:02:40.640Z,0
2017-01-31T17:03:51.018Z,0
2017-01-31T17:05:01.372Z,0
2017-01-31T17:06:12.143Z,0
2017-01-31T17:07:22.889Z,0
2017-01-31T17:08:33.236Z,0
2017-01-31T17:09:43.585Z,0
2017-01-31T17:10:54.331Z,0
2017-01-31T17:12:04.703Z,0
2017-01-31T17:13:15.480Z,0
2017-01-31T17:14:25.831Z,0
2017-01-31T17:15:36.182Z,0
2017-01-31T17:16:46.568Z,0
2017-01-31T17:17:57.341Z,0
2017-01-31T17:19:07.301Z,0
2017-01-31T17:20:16.871Z,0
2017-01-31T17:21:26.483Z,0
2017-01-31T17:22:36.843Z,0
2017-01-31T17:23:47.201Z,0
2017-01-31T17:24:57.950Z,0
2017-01-31T17:26:08.731Z,0
2017-01-31T17:27:18.715Z,0
2017-01-31T17:28:29.467Z,0
2017-01-31T17:29:40.215Z,0
2017-01-31T17:30:51.016Z,0
2017-01-31T17:32:01.787Z,0